Time;durP1;ratioP1;P1;durP2;ratioP2;P2;SDS_P1;SDS_P2;PMS_P1;PMS_P2;Temp;Humidity;BMP_temperature;BMP_pressure;BME280_temperature;BME280_humidity;BME280_pressure;Samples;Min_cycle;Max_cycle;Signal;HPM_P1;HPM_P2
2022/08/04 00:01:12;;;;;;;11.93;5.67;;;;;;;14.05;86.81;94930.70;1633434;86;21310;-51
2022/08/04 00:03:50;;;;;;;9.48;5.60;;;;;;;13.99;86.72;94929.17;1633982;86;21006;-51
2022/08/04 00:06:44;;;;;;;7.37;5.92;;;;;;;13.97;86.87;94933.64;1632534;87;21022;-50
2022/08/04 00:09:16;;;;;;;8.75;5.83;;;;;;;13.96;86.99;94933.50;1647294;86;21037;-51
2022/08/04 00:11:45;;;;;;;10.83;6.23;;;;;;;13.92;87.22;94941.95;1649945;86;21010;-51
2022/08/04 00:14:14;;;;;;;13.98;6.15;;;;;;;13.90;87.13;94933.95;1670663;85;21143;-50
2022/08/04 00:16:43;;;;;;;10.80;6.85;;;;;;;13.85;87.17;94933.20;1654234;85;21061;-50
2022/08/04 00:19:16;;;;;;;13.70;7.15;;;;;;;13.80;87.32;94930.43;1674873;85;22257;-50
2022/08/04 00:21:55;;;;;;;23.10;9.65;;;;;;;13.78;87.27;94930.76;1670615;85;21013;-50
2022/08/04 00:24:23;;;;;;;16.07;7.87;;;;;;;13.75;87.58;94926.13;1671305;84;20987;-50
2022/08/04 00:26:55;;;;;;;21.30;8.78;;;;;;;13.73;87.60;94934.91;1666752;84;21805;-49
2022/08/04 00:29:23;;;;;;;12.50;6.55;;;;;;;13.72;87.59;94936.14;1681365;84;21093;-50
2022/08/04 00:31:51;;;;;;;8.55;5.87;;;;;;;13.70;87.58;94931.69;1657246;85;21047;-50
2022/08/04 00:34:19;;;;;;;15.83;6.92;;;;;;;13.74;87.68;94930.13;1663152;84;21022;-50
2022/08/04 00:36:47;;;;;;;18.85;8.50;;;;;;;13.75;87.67;94931.66;1664318;85;21039;-49
2022/08/04 00:39:15;;;;;;;22.02;9.08;;;;;;;13.74;87.99;94930.13;1659990;85;21805;-50
2022/08/04 00:42:22;;;;;;;20.25;9.80;;;;;;;13.74;88.35;94934.27;1650849;85;21652;-50
2022/08/04 00:45:01;;;;;;;18.23;9.73;;;;;;;13.71;88.42;94931.05;1670054;84;21057;-51
2022/08/04 00:48:10;;;;;;;23.40;9.50;;;;;;;13.69;88.36;94927.98;1648537;85;21125;-51
2022/08/04 00:51:06;;;;;;;27.73;12.47;;;;;;;13.69;88.42;94931.53;1663859;85;21031;-51
2022/08/04 00:53:58;;;;;;;25.55;12.28;;;;;;;13.67;88.17;94934.59;1652506;86;21114;-51
2022/08/04 00:57:21;;;;;;;20.27;9.55;;;;;;;13.57;88.23;94928.91;1659550;84;21445;-53
2022/08/04 00:59:54;;;;;;;11.25;7.00;;;;;;;13.49;88.39;94933.22;1669011;85;21502;-50
2022/08/04 01:02:57;;;;;;;12.30;7.12;;;;;;;13.42;88.41;94936.30;1650224;86;20983;-50
2022/08/04 01:06:03;;;;;;;15.65;7.83;;;;;;;13.38;88.58;94932.91;1666427;85;21053;-50
2022/08/04 01:08:42;;;;;;;11.48;7.28;;;;;;;13.37;88.76;94934.13;1653307;84;21276;-49
2022/08/04 01:11:25;;;;;;;11.43;7.03;;;;;;;13.35;88.41;94939.36;1656244;84;21050;-50
2022/08/04 01:14:14;;;;;;;11.50;7.37;;;;;;;13.31;88.24;94938.75;1671157;85;21431;-50
2022/08/04 01:16:51;;;;;;;13.83;9.68;;;;;;;13.31;88.18;94934.60;1675908;84;21041;-51
2022/08/04 01:20:04;;;;;;;13.72;9.65;;;;;;;13.33;88.36;94926.02;1662301;84;21074;-51
2022/08/04 01:22:43;;;;;;;18.37;10.03;;;;;;;13.31;88.51;94927.69;1628762;86;21400;-52
2022/08/04 01:25:32;;;;;;;12.10;8.63;;;;;;;13.27;89.25;94931.98;1657017;85;20960;-50
2022/08/04 01:28:16;;;;;;;9.58;7.55;;;;;;;13.26;89.19;94928.31;1657197;85;21113;-51
2022/08/04 01:30:45;;;;;;;11.20;7.70;;;;;;;13.23;88.83;94933.37;1655471;85;21466;-50
2022/08/04 01:33:14;;;;;;;8.55;7.12;;;;;;;13.23;88.85;94936.14;1638552;85;20983;-50
2022/08/04 01:35:50;;;;;;;8.98;6.55;;;;;;;13.24;88.61;94937.67;1669208;84;21802;-50
2022/08/04 01:38:36;;;;;;;12.20;7.50;;;;;;;13.23;88.41;94937.52;1686417;84;21063;-50
2022/08/04 01:41:06;;;;;;;9.63;5.45;;;;;;;13.22;88.31;94933.20;1626698;85;21010;-50
2022/08/04 01:43:37;;;;;;;9.43;5.10;;;;;;;13.23;88.25;94932.00;1654882;85;20991;-50
2022/08/04 01:46:06;;;;;;;11.40;5.58;;;;;;;13.23;87.75;94925.09;1671073;85;21475;-49
2022/08/04 01:48:34;;;;;;;9.30;5.78;;;;;;;13.20;87.87;94933.67;1674628;84;21140;-50
2022/08/04 01:51:07;;;;;;;10.55;5.65;;;;;;;13.22;87.64;94927.67;1678244;85;21038;-50
2022/08/04 01:53:37;;;;;;;10.03;5.42;;;;;;;13.19;87.60;94926.61;1668571;84;21523;-52
2022/08/04 01:56:07;;;;;;;9.53;4.97;;;;;;;13.21;87.83;94923.38;1672011;84;21030;-49
2022/08/04 01:58:36;;;;;;;9.20;5.22;;;;;;;13.21;88.02;94929.69;1646718;85;21085;-50
2022/08/04 02:01:08;;;;;;;6.90;4.53;;;;;;;13.22;88.22;94929.05;1681320;84;21183;-49
2022/08/04 02:03:43;;;;;;;8.40;5.12;;;;;;;13.20;88.70;94930.13;1665176;84;21031;-51
2022/08/04 02:06:18;;;;;;;12.13;6.17;;;;;;;13.11;88.71;94927.38;1666876;85;21070;-49
2022/08/04 02:09:06;;;;;;;7.95;5.92;;;;;;;13.02;88.96;94923.20;1669668;84;21061;-52
2022/08/04 02:11:35;;;;;;;11.55;6.37;;;;;;;13.00;89.33;94927.03;1678864;85;20970;-51
2022/08/04 02:14:40;;;;;;;10.53;6.50;;;;;;;13.00;89.29;94925.66;1661611;84;21132;-50
2022/08/04 02:17:14;;;;;;;14.47;6.75;;;;;;;12.97;89.50;94925.98;1671987;84;21491;-52
2022/08/04 02:20:07;;;;;;;8.75;6.12;;;;;;;12.97;89.35;94926.58;1667797;84;21141;-50
2022/08/04 02:23:00;;;;;;;16.10;7.55;;;;;;;12.98;89.33;94928.11;1675887;85;21020;-51
2022/08/04 02:25:29;;;;;;;;;;;;;;;13.01;89.21;94924.42;1660796;84;20982;-51
2022/08/04 02:28:14;;;;;;;9.55;7.15;;;;;;;12.97;88.99;94918.29;1616655;87;21162;-54
2022/08/04 02:31:14;;;;;;;14.55;7.22;;;;;;;12.88;88.77;94919.64;1678379;84;21593;-51
2022/08/04 02:33:45;;;;;;;12.95;7.37;;;;;;;12.78;88.99;94920.83;1669150;85;21139;-51
2022/08/04 02:36:27;;;;;;;16.45;6.87;;;;;;;12.70;89.32;94916.84;1664581;81;21446;-51
2022/08/04 02:38:59;;;;;;;15.40;7.65;;;;;;;12.68;89.37;94915.15;1679786;84;21538;-51
2022/08/04 02:41:28;;;;;;;24.27;7.42;;;;;;;12.66;89.57;94914.81;1665131;85;21146;-51
2022/08/04 02:43:59;;;;;;;15.93;7.47;;;;;;;12.67;90.22;94919.10;1668944;85;21007;-49
2022/08/04 02:46:27;;;;;;;12.68;6.30;;;;;;;12.69;90.08;94918.81;1665009;85;21061;-49
2022/08/04 02:48:56;;;;;;;15.98;6.90;;;;;;;12.68;89.89;94922.05;1668935;85;21053;-50
2022/08/04 02:51:36;;;;;;;12.18;7.10;;;;;;;12.67;89.91;94923.24;1672118;85;21546;-50
2022/08/04 02:54:05;;;;;;;11.12;6.37;;;;;;;12.69;89.73;94922.20;1661261;85;21167;-49
2022/08/04 02:56:35;;;;;;;8.90;6.00;;;;;;;12.67;89.32;94925.41;1668002;85;20971;-50
2022/08/04 02:59:06;;;;;;;6.33;5.45;;;;;;;12.62;89.20;94926.02;1652368;85;21027;-50
2022/08/04 03:01:34;;;;;;;12.43;6.53;;;;;;;12.62;89.29;94926.61;1662351;85;20975;-51
2022/08/04 03:04:28;;;;;;;16.70;5.78;;;;;;;12.62;89.27;94929.38;1686644;85;20962;-50
2022/08/04 03:07:25;;;;;;;10.93;6.62;;;;;;;12.65;89.59;94932.59;1671264;84;21331;-50
2022/08/04 03:10:31;;;;;;;17.32;6.90;;;;;;;12.67;89.32;94934.28;1668234;84;21427;-51
2022/08/04 03:13:29;;;;;;;15.78;8.23;;;;;;;12.64;89.41;94936.58;1663844;84;21018;-51
2022/08/04 03:16:21;;;;;;;16.42;6.50;;;;;;;12.60;89.53;94938.72;1667431;85;20978;-50
2022/08/04 03:19:06;;;;;;;9.28;5.45;;;;;;;12.56;89.89;94934.72;1658728;84;21175;-50
2022/08/04 03:22:03;;;;;;;19.77;6.10;;;;;;;12.54;89.66;94936.41;1653275;85;21233;-50
2022/08/04 03:25:03;;;;;;;17.20;6.70;;;;;;;12.48;89.72;94934.07;1644904;85;21000;-50
2022/08/04 03:27:55;;;;;;;11.68;5.62;;;;;;;12.44;89.87;94937.59;1671091;85;21055;-52
2022/08/04 03:30:34;;;;;;;14.80;6.78;;;;;;;12.45;89.79;94940.50;1667896;84;21041;-50
2022/08/04 03:33:38;;;;;;;17.65;7.10;;;;;;;12.40;89.70;94938.34;1664179;84;21047;-50
2022/08/04 03:36:34;;;;;;;16.00;6.92;;;;;;;12.40;89.93;94941.10;1658151;85;21852;-51
2022/08/04 03:39:26;;;;;;;14.03;6.15;;;;;;;12.45;90.18;94939.13;1660654;84;21581;-50
2022/08/04 03:42:25;;;;;;;11.25;6.60;;;;;;;12.46;89.80;94947.55;1666736;85;20967;-51
2022/08/04 03:45:22;;;;;;;11.55;6.50;;;;;;;12.42;89.77;94945.55;1673899;84;20978;-50
2022/08/04 03:48:08;;;;;;;14.50;6.00;;;;;;;12.46;90.14;94942.66;1662084;85;21590;-51
2022/08/04 03:54:39;;;;;;;27.85;7.15;;;;;;;12.70;90.57;94933.40;1673236;84;21156;-50
2022/08/04 03:57:44;;;;;;;8.15;6.65;;;;;;;12.85;90.05;94932.95;1671341;85;20998;-49
2022/08/04 04:00:18;;;;;;;13.72;6.75;;;;;;;12.90;89.67;94942.04;1673012;85;21062;-51
2022/08/04 04:03:17;;;;;;;14.47;5.67;;;;;;;12.99;89.86;94946.22;1658210;83;21003;-52
2022/08/04 04:05:59;;;;;;;8.95;5.35;;;;;;;13.11;89.58;94945.33;1674296;85;21276;-50
2022/08/04 04:08:53;;;;;;;9.37;5.73;;;;;;;13.21;88.88;94943.50;1635550;85;21602;-50
2022/08/04 04:11:56;;;;;;;15.40;5.95;;;;;;;13.25;88.64;94939.21;1661795;85;21482;-50
2022/08/04 04:14:47;;;;;;;12.28;5.80;;;;;;;13.29;88.48;94936.42;1669215;85;20983;-50
2022/08/04 04:17:49;;;;;;;11.90;6.10;;;;;;;13.35;88.39;94937.97;1674626;85;21007;-50
2022/08/04 04:20:41;;;;;;;10.03;6.45;;;;;;;13.42;88.20;94933.54;1668690;84;21265;-52
2022/08/04 04:23:33;;;;;;;13.25;7.33;;;;;;;13.46;88.16;94931.38;1664745;85;20967;-51
2022/08/04 04:26:22;;;;;;;9.70;5.95;;;;;;;13.49;88.23;94930.46;1667526;85;21094;-52
2022/08/04 04:29:32;;;;;;;12.70;6.22;;;;;;;13.60;88.34;94937.69;1676120;84;21089;-50
2022/08/04 04:32:25;;;;;;;11.40;6.20;;;;;;;13.72;88.16;94939.50;1668559;84;21070;-49
2022/08/04 04:35:21;;;;;;;10.88;6.03;;;;;;;13.87;87.64;94936.27;1657042;85;21153;-49
2022/08/04 04:38:17;;;;;;;13.60;6.08;;;;;;;14.02;87.38;94942.70;1680990;85;21510;-56
2022/08/04 04:41:14;;;;;;;10.03;5.30;;;;;;;14.09;86.64;94942.36;1675854;84;21078;-53
2022/08/04 04:44:02;;;;;;;9.90;5.33;;;;;;;14.18;86.36;94942.39;1676307;85;21522;-53
2022/08/04 04:46:49;;;;;;;24.37;5.55;;;;;;;14.25;86.03;94937.30;1646092;84;20964;-50
2022/08/04 04:49:50;;;;;;;13.75;5.20;;;;;;;14.40;85.79;94940.91;1664229;84;21251;-50
2022/08/04 04:52:29;;;;;;;6.90;4.95;;;;;;;14.49;85.47;94948.56;1681211;85;21022;-50
2022/08/04 04:55:23;;;;;;;24.75;10.18;;;;;;;14.58;85.09;94938.86;1661505;84;21114;-50
2022/08/04 04:57:52;;;;;;;9.48;5.45;;;;;;;14.64;84.80;94936.97;1673000;84;21070;-50
2022/08/04 05:00:20;;;;;;;5.58;4.50;;;;;;;14.75;84.93;94935.08;1674402;84;21097;-52
2022/08/04 05:03:39;;;;;;;7.90;5.17;;;;;;;14.87;84.66;94937.66;1644187;85;21131;-50
2022/08/04 05:06:30;;;;;;;9.80;5.37;;;;;;;14.97;84.49;94931.44;1651947;84;21086;-50
2022/08/04 05:09:13;;;;;;;8.05;6.40;;;;;;;15.10;84.18;94941.05;1648442;85;21573;-50
2022/08/04 05:12:26;;;;;;;5.92;5.33;;;;;;;15.23;83.62;94933.28;1647728;85;21138;-50
2022/08/04 05:14:54;;;;;;;8.45;4.92;;;;;;;15.36;83.20;94935.20;1657887;86;21203;-50
2022/08/04 05:17:27;;;;;;;8.15;4.97;;;;;;;15.56;82.77;94932.58;1661174;86;21206;-50
2022/08/04 05:20:08;;;;;;;7.07;4.77;;;;;;;15.72;82.04;94933.52;1645512;84;20956;-52
2022/08/04 05:22:59;;;;;;;8.90;5.12;;;;;;;15.79;81.06;94933.17;1668185;84;21236;-50
2022/08/04 05:25:52;;;;;;;8.88;5.45;;;;;;;15.76;80.24;94924.39;1670314;84;21060;-51
2022/08/04 05:28:33;;;;;;;9.73;5.05;;;;;;;15.78;80.14;94933.03;1671721;84;21111;-51
2022/08/04 05:31:05;;;;;;;9.33;4.60;;;;;;;15.85;79.62;94924.33;1671862;84;21135;-51
2022/08/04 05:33:49;;;;;;;14.80;4.90;;;;;;;15.92;79.29;94930.88;1626721;85;21045;-54
2022/08/04 05:36:22;;;;;;;8.83;4.75;;;;;;;15.98;79.29;94926.21;1634993;86;21557;-51
2022/08/04 05:38:53;;;;;;;6.40;4.35;;;;;;;16.05;79.00;94925.05;1637829;86;21081;-54
2022/08/04 05:41:21;;;;;;;11.08;4.45;;;;;;;16.09;78.65;94922.23;1656665;85;21632;-52
2022/08/04 05:43:49;;;;;;;13.25;6.83;;;;;;;16.16;78.47;94924.64;1611447;86;21328;-52
2022/08/04 05:46:18;;;;;;;10.43;5.10;;;;;;;16.25;78.42;94923.78;1651968;85;21141;-52
2022/08/04 05:48:47;;;;;;;8.58;4.83;;;;;;;16.36;77.87;94924.13;1626085;85;21149;-50
2022/08/04 05:51:14;;;;;;;10.53;5.50;;;;;;;16.47;77.44;94922.15;1659862;84;21096;-55
2022/08/04 05:53:43;;;;;;;11.80;4.70;;;;;;;16.58;77.02;94907.06;1662820;84;21398;-55
2022/08/04 05:56:14;;;;;;;12.07;4.47;;;;;;;16.69;76.64;94921.13;1644908;84;21969;-55
2022/08/04 05:58:42;;;;;;;12.17;4.47;;;;;;;16.80;76.24;94912.95;1641850;85;21065;-54
2022/08/04 06:01:11;;;;;;;11.48;4.87;;;;;;;16.90;75.81;94917.15;1630817;85;21882;-55
2022/08/04 06:03:38;;;;;;;12.28;4.65;;;;;;;16.99;75.34;94919.18;1635270;84;21018;-54
2022/08/04 06:06:06;;;;;;;9.80;4.97;;;;;;;17.12;75.43;94912.64;1629759;85;21044;-57
2022/08/04 06:08:33;;;;;;;11.35;4.50;;;;;;;17.31;75.07;94916.69;1664181;83;21238;-57
2022/08/04 06:11:05;;;;;;;11.12;5.47;;;;;;;17.47;74.14;94923.13;1668081;83;21059;-58
2022/08/04 06:13:43;;;;;;;14.40;8.43;;;;;;;17.57;73.76;94919.57;1670483;85;20986;-59
2022/08/04 06:16:14;;;;;;;15.45;5.30;;;;;;;17.68;73.19;94922.50;1670669;83;21116;-57
2022/08/04 06:18:43;;;;;;;10.15;4.47;;;;;;;17.78;72.71;94921.08;1643156;85;21593;-57
2022/08/04 06:21:10;;;;;;;14.33;4.67;;;;;;;17.88;72.56;94916.91;1650360;84;21957;-56
2022/08/04 06:23:39;;;;;;;8.33;4.72;;;;;;;18.01;71.90;94922.87;1633342;85;21539;-63
2022/08/04 06:26:07;;;;;;;10.10;4.50;;;;;;;18.06;71.49;94911.02;1636137;85;21690;-59
2022/08/04 06:28:36;;;;;;;14.70;4.92;;;;;;;18.13;71.28;94909.17;1636113;85;21132;-58
2022/08/04 06:31:04;;;;;;;8.03;5.30;;;;;;;18.24;71.16;94910.07;1638204;84;21081;-58
2022/08/04 06:33:34;;;;;;;9.48;4.58;;;;;;;18.34;70.73;94905.88;1636118;85;21331;-57
2022/08/04 06:36:04;;;;;;;7.25;3.98;;;;;;;18.41;70.43;94914.55;1656077;85;21150;-62
2022/08/04 06:38:39;;;;;;;6.97;4.20;;;;;;;18.55;70.28;94903.91;1672124;83;21097;-59
2022/08/04 06:41:08;;;;;;;6.50;4.25;;;;;;;18.66;69.81;94909.55;1645146;84;21081;-62
2022/08/04 06:43:37;;;;;;;8.70;4.08;;;;;;;18.78;69.54;94906.99;1637162;85;21553;-63
2022/08/04 06:46:06;;;;;;;11.38;3.95;;;;;;;18.91;69.34;94905.95;1655125;84;21979;-59
2022/08/04 06:48:42;;;;;;;8.43;4.78;;;;;;;19.02;69.04;94906.00;1665136;84;28389;-60
2022/08/04 06:51:11;;;;;;;8.33;4.25;;;;;;;19.13;68.56;94907.48;1604370;85;21130;-60
2022/08/04 06:53:39;;;;;;;6.80;4.42;;;;;;;19.23;67.94;94903.23;1659747;83;21045;-60
2022/08/04 06:56:07;;;;;;;26.40;4.72;;;;;;;19.33;67.63;94901.78;1639250;85;21875;-60
2022/08/04 06:58:35;;;;;;;7.67;4.37;;;;;;;19.45;67.31;94900.58;1626434;85;22284;-57
2022/08/04 07:01:03;;;;;;;8.80;4.03;;;;;;;19.59;66.92;94894.67;1634314;85;21093;-59
2022/08/04 07:03:31;;;;;;;8.73;3.67;;;;;;;19.70;66.67;94889.89;1650845;85;21401;-54
2022/08/04 07:06:00;;;;;;;10.45;3.60;;;;;;;19.87;66.15;94890.70;1653407;85;21046;-58
2022/08/04 07:08:27;;;;;;;11.55;3.27;;;;;;;20.01;65.73;94891.75;1642407;85;21052;-61
2022/08/04 07:10:56;;;;;;;7.35;3.95;;;;;;;20.18;65.39;94888.51;1642987;85;22179;-59
2022/08/04 07:13:24;;;;;;;9.93;3.70;;;;;;;20.37;64.52;94886.00;1628338;85;21918;-57
2022/08/04 07:15:52;;;;;;;7.75;3.37;;;;;;;20.51;63.58;94890.56;1629826;85;21094;-58
2022/08/04 07:18:19;;;;;;;6.62;3.35;;;;;;;20.68;63.20;94882.32;1641327;85;21049;-57
2022/08/04 07:20:47;;;;;;;13.80;3.15;;;;;;;20.91;62.80;94887.30;1634017;86;21445;-61
2022/08/04 07:23:20;;;;;;;4.92;3.50;;;;;;;21.12;62.06;94885.73;1645375;84;21188;-58
2022/08/04 07:25:51;;;;;;;6.75;3.02;;;;;;;21.32;61.40;94884.02;1639935;85;21053;-55
2022/08/04 07:28:19;;;;;;;2.90;2.60;;;;;;;21.52;60.81;94885.09;1637109;85;21108;-55
2022/08/04 07:30:48;;;;;;;4.15;2.52;;;;;;;21.65;60.09;94883.28;1647668;84;21966;-56
2022/08/04 07:33:17;;;;;;;7.17;3.00;;;;;;;21.72;60.13;94879.19;1618873;85;21090;-59
2022/08/04 07:35:53;;;;;;;4.75;3.20;;;;;;;21.81;59.98;94874.70;1651104;84;21219;-53
2022/08/04 07:38:21;;;;;;;6.15;3.42;;;;;;;21.90;60.18;94874.39;1639575;84;21054;-53
2022/08/04 07:40:49;;;;;;;3.87;3.47;;;;;;;22.04;61.13;94876.22;1636694;85;21101;-55
2022/08/04 07:43:17;;;;;;;5.87;3.85;;;;;;;22.19;60.95;94876.64;1653561;84;21037;-58
2022/08/04 07:45:45;;;;;;;5.03;3.55;;;;;;;22.35;60.96;94875.00;1628634;86;21154;-55
2022/08/04 07:48:14;;;;;;;3.55;3.10;;;;;;;22.51;60.44;94869.29;1644845;85;22086;-55
2022/08/04 07:50:45;;;;;;;3.67;2.92;;;;;;;22.67;59.99;94870.45;1634476;84;21065;-55
2022/08/04 07:53:12;;;;;;;5.47;2.70;;;;;;;22.78;59.87;94866.91;1664867;83;21105;-55
2022/08/04 07:55:40;;;;;;;11.57;3.70;;;;;;;22.94;59.59;94868.81;1662109;83;21042;-55
2022/08/04 07:58:08;;;;;;;4.08;2.77;;;;;;;23.08;59.35;94865.48;1633706;85;21096;-58
2022/08/04 08:00:37;;;;;;;5.33;3.65;;;;;;;23.20;58.47;94862.06;1630772;85;21754;-55
2022/08/04 08:03:07;;;;;;;3.22;2.92;;;;;;;23.28;57.33;94861.61;1642876;84;21036;-56
2022/08/04 08:05:35;;;;;;;4.45;2.85;;;;;;;23.30;57.64;94856.22;1659205;84;21092;-57
2022/08/04 08:08:03;;;;;;;5.87;2.72;;;;;;;23.39;58.01;94855.11;1653477;85;21046;-57
2022/08/04 08:10:32;;;;;;;4.72;2.60;;;;;;;23.49;57.31;94855.63;1590997;85;21062;-55
2022/08/04 08:13:00;;;;;;;5.00;3.20;;;;;;;23.56;56.79;94860.63;1635130;85;21922;-60
2022/08/04 08:15:28;;;;;;;6.58;3.02;;;;;;;23.68;56.49;94862.03;1645155;85;21648;-53
2022/08/04 08:17:58;;;;;;;6.58;2.95;;;;;;;23.78;56.41;94860.36;1616246;86;21073;-55
2022/08/04 08:20:28;;;;;;;3.02;2.72;;;;;;;23.98;56.44;94861.27;1582890;87;21112;-58
2022/08/04 08:22:55;;;;;;;7.22;2.80;;;;;;;24.19;56.54;94856.66;1644199;84;21133;-55
2022/08/04 08:25:27;;;;;;;7.33;3.20;;;;;;;24.35;55.20;94854.98;1624657;86;21287;-56
2022/08/04 08:27:57;;;;;;;5.08;2.77;;;;;;;24.51;54.87;94853.20;1659454;85;21110;-53
2022/08/04 08:30:25;;;;;;;5.10;2.92;;;;;;;24.67;54.23;94855.80;1658521;84;21063;-54
2022/08/04 08:32:52;;;;;;;5.17;3.25;;;;;;;24.78;53.78;94852.78;1667896;85;21053;-54
2022/08/04 08:35:20;;;;;;;3.27;2.67;;;;;;;24.89;53.03;94858.23;1674642;84;21437;-53
2022/08/04 08:37:55;;;;;;;4.97;3.08;;;;;;;24.97;52.86;94861.18;1646253;84;21941;-55
2022/08/04 08:40:50;;;;;;;3.33;2.85;;;;;;;25.07;52.25;94856.64;1645049;85;21250;-56
2022/08/04 08:44:01;;;;;;;3.30;2.50;;;;;;;25.16;51.62;94854.83;1670664;85;21307;-53
2022/08/04 08:47:04;;;;;;;6.42;3.00;;;;;;;25.25;52.43;94858.01;1672287;85;21542;-57
2022/08/04 08:50:00;;;;;;;4.60;3.80;;;;;;;25.28;52.39;94860.41;1660674;84;21967;-53
2022/08/04 08:52:45;;;;;;;7.72;3.60;;;;;;;25.39;51.96;94853.14;1650332;84;21410;-56
2022/08/04 08:55:47;;;;;;;6.28;4.45;;;;;;;25.51;51.41;94857.27;1657977;85;21412;-54
2022/08/04 08:58:49;;;;;;;5.53;3.10;;;;;;;25.53;50.50;94859.66;1647081;83;21126;-56
2022/08/04 09:01:34;;;;;;;4.75;2.92;;;;;;;25.55;51.19;94854.23;1661736;84;21167;-56
2022/08/04 09:04:47;;;;;;;6.30;3.52;;;;;;;25.76;51.18;94854.32;1646151;85;21565;-54
2022/08/04 09:07:51;;;;;;;5.25;2.72;;;;;;;26.00;50.42;94851.41;1645752;84;21824;-59
2022/08/04 09:10:33;;;;;;;3.57;2.83;;;;;;;26.18;49.24;94854.73;1675143;85;21695;-54
2022/08/04 09:13:25;;;;;;;7.60;4.22;;;;;;;26.20;49.43;94849.30;1675545;83;21926;-55
2022/08/04 09:16:02;;;;;;;7.62;2.92;;;;;;;26.20;48.91;94857.75;1666396;83;21164;-60
2022/08/04 09:18:48;;;;;;;3.22;2.92;;;;;;;26.21;48.74;94852.86;1644882;85;21135;-54
2022/08/04 09:21:33;;;;;;;5.25;2.62;;;;;;;26.29;48.67;94850.23;1639532;84;21144;-53
2022/08/04 09:24:15;;;;;;;6.62;3.25;;;;;;;26.22;49.03;94849.50;1671263;83;21070;-56
2022/08/04 09:27:07;;;;;;;10.00;3.37;;;;;;;26.10;49.14;94858.09;1641010;85;21064;-57
2022/08/04 09:30:04;;;;;;;4.05;2.02;;;;;;;26.12;49.62;94856.89;1634032;85;21125;-52
2022/08/04 09:33:01;;;;;;;4.62;2.70;;;;;;;26.34;50.34;94845.77;1638246;83;21144;-56
2022/08/04 09:36:07;;;;;;;5.50;3.15;;;;;;;26.57;49.96;94852.44;1672625;83;21085;-53
2022/08/04 09:39:05;;;;;;;7.58;4.25;;;;;;;26.62;47.69;94848.08;1637114;85;21186;-55
2022/08/04 09:42:03;;;;;;;4.50;3.90;;;;;;;26.50;47.62;94843.98;1640096;85;21128;-56
2022/08/04 09:44:55;;;;;;;4.58;3.15;;;;;;;26.27;48.36;94848.61;1641620;84;22125;-56
2022/08/04 09:47:46;;;;;;;3.87;2.77;;;;;;;26.07;48.16;94849.95;1638813;85;21086;-53
2022/08/04 09:50:38;;;;;;;4.95;2.87;;;;;;;25.86;48.93;94855.44;1634487;84;21922;-59
2022/08/04 09:53:40;;;;;;;3.62;2.22;;;;;;;25.71;48.75;94856.61;1628268;86;21116;-63
2022/08/04 09:56:48;;;;;;;42.97;32.40;;;;;;;25.56;49.45;94857.80;1669576;83;21490;-55
2022/08/04 09:59:30;;;;;;;6.83;5.83;;;;;;;25.51;49.62;94855.86;1674241;85;21025;-57
2022/08/04 10:02:10;;;;;;;4.75;3.50;;;;;;;25.43;49.25;94858.56;1647338;85;21065;-57
2022/08/04 10:04:39;;;;;;;35.85;26.35;;;;;;;25.31;49.48;94859.31;1646607;83;21170;-55
2022/08/04 10:07:42;;;;;;;14.85;6.65;;;;;;;25.26;49.56;94858.75;1640675;83;21117;-58
2022/08/04 10:10:48;;;;;;;;;;;;;;;25.18;49.46;94855.84;1642937;83;21073;-58
2022/08/04 10:13:53;;;;;;;6.42;3.50;;;;;;;25.08;50.06;94859.59;1651585;84;20174;-56
2022/08/04 10:16:41;;;;;;;4.83;3.75;;;;;;;25.12;50.22;94855.80;1665396;83;21041;-58
2022/08/04 10:19:30;;;;;;;4.10;3.05;;;;;;;25.29;50.36;94852.06;1653625;84;21237;-54
2022/08/04 10:22:24;;;;;;;3.37;3.08;;;;;;;25.50;49.94;94845.89;1663025;83;21169;-56
2022/08/04 10:25:39;;;;;;;4.45;2.80;;;;;;;25.68;49.55;94845.75;1639389;84;21073;-58
2022/08/04 10:28:11;;;;;;;3.83;2.80;;;;;;;25.85;48.90;94848.28;1648470;85;21073;-56
2022/08/04 10:30:42;;;;;;;6.78;3.02;;;;;;;26.02;48.21;94840.33;1655281;84;21105;-55
2022/08/04 10:33:13;;;;;;;9.95;4.10;;;;;;;26.29;47.14;94845.25;1643801;84;21123;-57
2022/08/04 10:35:50;;;;;;;5.83;2.90;;;;;;;26.51;46.75;94835.63;1642426;85;21098;-55
2022/08/04 10:38:26;;;;;;;3.12;2.87;;;;;;;26.91;45.34;94844.03;1658302;85;21049;-54
2022/08/04 10:41:04;;;;;;;4.97;3.00;;;;;;;27.18;44.49;94843.98;1634575;85;22469;-57
2022/08/04 10:43:43;;;;;;;7.08;2.75;;;;;;;27.70;43.56;94835.11;1635023;85;21086;-54
2022/08/04 10:46:20;;;;;;;4.72;2.90;;;;;;;28.21;43.19;94830.29;1653651;84;21226;-54
2022/08/04 10:49:02;;;;;;;4.97;3.20;;;;;;;28.50;41.64;94826.05;1659916;84;21093;-54
2022/08/04 10:52:03;;;;;;;6.97;3.47;;;;;;;28.49;41.70;94832.39;1644523;85;21024;-53
2022/08/04 10:55:01;;;;;;;3.80;2.87;;;;;;;28.61;42.41;94830.70;1638933;85;21018;-60
2022/08/04 10:57:51;;;;;;;6.37;2.50;;;;;;;28.71;42.41;94830.90;1667557;84;21364;-52
2022/08/04 11:00:25;;;;;;;3.15;2.90;;;;;;;28.93;43.72;94833.06;1655456;84;22582;-56
2022/08/04 11:03:14;;;;;;;10.13;3.45;;;;;;;28.83;42.50;94827.16;1633896;85;21141;-57
2022/08/04 11:06:03;;;;;;;7.05;3.50;;;;;;;28.65;42.75;94833.16;1651464;84;21035;-56
2022/08/04 11:08:55;;;;;;;5.83;2.87;;;;;;;28.26;42.58;94837.84;1646236;84;21403;-57
2022/08/04 11:11:46;;;;;;;3.25;2.95;;;;;;;27.87;43.73;94841.08;1649256;84;21013;-57
2022/08/04 11:14:22;;;;;;;7.35;3.30;;;;;;;27.52;43.76;94831.89;1665636;84;21109;-60
2022/08/04 11:16:57;;;;;;;7.75;3.10;;;;;;;27.20;44.93;94839.21;1653567;84;21089;-54
2022/08/04 11:19:48;;;;;;;3.40;3.10;;;;;;;27.08;45.98;94840.13;1672829;83;21136;-60
2022/08/04 11:22:23;;;;;;;4.08;3.05;;;;;;;26.99;45.04;94839.19;1633448;86;21063;-59
2022/08/04 11:25:14;;;;;;;4.33;3.40;;;;;;;26.96;45.50;94833.88;1662539;84;21035;-59
2022/08/04 11:27:56;;;;;;;5.30;3.12;;;;;;;26.93;45.42;94831.52;1677266;84;22179;-57
2022/08/04 11:30:26;;;;;;;3.40;3.07;;;;;;;27.11;46.64;94836.87;1653799;84;21518;-60
2022/08/04 11:33:01;;;;;;;6.83;3.35;;;;;;;27.43;46.93;94837.30;1678835;84;21823;-56
2022/08/04 11:35:44;;;;;;;4.03;2.70;;;;;;;27.69;44.67;94833.59;1644452;84;21050;-55
2022/08/04 11:38:26;;;;;;;4.05;3.22;;;;;;;27.92;43.35;94829.52;1656681;84;21041;-56
2022/08/04 11:40:57;;;;;;;5.53;2.95;;;;;;;28.10;44.14;94822.89;1664739;83;22002;-58
2022/08/04 11:43:42;;;;;;;4.75;3.80;;;;;;;28.27;42.32;94826.63;1666272;84;21030;-59
2022/08/04 11:46:14;;;;;;;4.17;3.45;;;;;;;28.38;42.10;94819.98;1661502;83;21203;-59
2022/08/04 11:48:49;;;;;;;7.42;3.52;;;;;;;28.57;41.63;94815.42;1652661;84;21362;-58
2022/08/04 11:51:21;;;;;;;7.10;3.67;;;;;;;28.70;41.30;94819.48;1670364;83;21034;-59
2022/08/04 11:53:50;;;;;;;3.27;2.92;;;;;;;28.86;42.45;94822.43;1634178;85;21273;-59
2022/08/04 11:59:09;;;;;;;5.10;2.77;;;;;;;29.54;42.31;94817.55;1664171;85;21190;-57
2022/08/04 12:02:15;;;;;;;3.12;2.58;;;;;;;29.49;41.31;94811.42;1626951;85;21069;-55
2022/08/04 12:04:59;;;;;;;4.70;2.80;;;;;;;29.30;42.18;94809.63;1647766;85;21210;-55
2022/08/04 12:07:44;;;;;;;6.03;2.85;;;;;;;29.12;42.53;94815.02;1640701;85;21297;-55
2022/08/04 12:10:32;;;;;;;5.72;2.70;;;;;;;28.98;42.97;94815.11;1648876;84;21109;-58
2022/08/04 12:13:17;;;;;;;4.33;2.37;;;;;;;28.80;43.04;94813.37;1657716;84;21124;-57
2022/08/04 12:16:23;;;;;;;8.00;3.40;;;;;;;29.03;43.72;94816.98;1649423;85;21127;-55
2022/08/04 12:18:57;;;;;;;5.90;2.95;;;;;;;29.61;43.81;94818.19;1654527;84;21085;-58
2022/08/04 12:21:42;;;;;;;3.98;2.58;;;;;;;30.50;41.47;94819.98;1590306;85;21519;-56
2022/08/04 12:24:17;;;;;;;2.45;2.25;;;;;;;31.05;39.82;94810.64;1644133;84;21727;-56
2022/08/04 12:26:52;;;;;;;4.25;2.98;;;;;;;31.32;38.62;94812.34;1652203;84;21061;-56
2022/08/04 12:29:20;;;;;;;3.25;2.52;;;;;;;31.61;38.26;94811.95;1641470;85;21003;-58
2022/08/04 12:32:00;;;;;;;3.47;2.45;;;;;;;32.10;36.47;94807.56;1638410;85;21027;-54
2022/08/04 12:34:40;;;;;;;5.60;2.72;;;;;;;32.55;35.44;94809.84;1650627;85;21170;-54
2022/08/04 12:38:06;;;;;;;4.33;2.80;;;;;;;32.57;34.73;94813.62;1639986;85;21083;-55
2022/08/04 12:40:54;;;;;;;4.40;2.40;;;;;;;32.19;35.95;94806.23;1641051;85;21784;-56
2022/08/04 12:43:43;;;;;;;3.83;2.37;;;;;;;31.53;36.53;94814.12;1640021;84;21393;-56